sensor_id;sensor_type;location;lat;lon;timestamp;P1;durP1;ratioP1;P2;durP2;ratioP2
10174;SDS011;18221;38.704;0.152;2023-06-14T00:02:07;4.63;;;3.23;;
10174;SDS011;18221;38.704;0.152;2023-06-14T00:04:35;4.07;;;3.67;;
10174;SDS011;18221;38.704;0.152;2023-06-14T00:07:08;4.17;;;3.33;;
10174;SDS011;18221;38.704;0.152;2023-06-14T00:09:39;3.73;;;3.40;;
10174;SDS011;18221;38.704;0.152;2023-06-14T00:12:07;3.93;;;3.33;;
10174;SDS011;18221;38.704;0.152;2023-06-14T00:14:35;5.37;;;3.50;;
10174;SDS011;18221;38.704;0.152;2023-06-14T00:17:03;3.93;;;3.50;;
10174;SDS011;18221;38.704;0.152;2023-06-14T00:19:32;4.00;;;3.37;;
10174;SDS011;18221;38.704;0.152;2023-06-14T00:22:01;4.17;;;3.20;;
10174;SDS011;18221;38.704;0.152;2023-06-14T00:24:30;4.63;;;3.40;;
10174;SDS011;18221;38.704;0.152;2023-06-14T00:26:58;4.97;;;3.33;;
10174;SDS011;18221;38.704;0.152;2023-06-14T00:29:26;4.50;;;3.23;;
10174;SDS011;18221;38.704;0.152;2023-06-14T00:31:54;4.50;;;3.30;;
10174;SDS011;18221;38.704;0.152;2023-06-14T00:34:22;4.83;;;3.50;;
10174;SDS011;18221;38.704;0.152;2023-06-14T00:36:50;4.20;;;3.43;;
10174;SDS011;18221;38.704;0.152;2023-06-14T00:39:18;3.70;;;3.27;;
10174;SDS011;18221;38.704;0.152;2023-06-14T00:41:48;5.17;;;3.40;;
10174;SDS011;18221;38.704;0.152;2023-06-14T00:44:16;4.73;;;3.27;;
10174;SDS011;18221;38.704;0.152;2023-06-14T00:46:45;4.17;;;3.67;;
10174;SDS011;18221;38.704;0.152;2023-06-14T00:49:13;4.53;;;3.23;;
10174;SDS011;18221;38.704;0.152;2023-06-14T00:51:44;3.93;;;3.37;;
10174;SDS011;18221;38.704;0.152;2023-06-14T00:54:12;7.33;;;3.90;;
10174;SDS011;18221;38.704;0.152;2023-06-14T00:56:40;4.47;;;3.80;;
10174;SDS011;18221;38.704;0.152;2023-06-14T00:59:12;7.57;;;3.73;;
10174;SDS011;18221;38.704;0.152;2023-06-14T01:01:41;7.43;;;3.60;;
10174;SDS011;18221;38.704;0.152;2023-06-14T01:04:09;7.00;;;3.67;;
10174;SDS011;18221;38.704;0.152;2023-06-14T01:06:39;4.60;;;3.77;;
10174;SDS011;18221;38.704;0.152;2023-06-14T01:09:22;5.80;;;4.33;;
10174;SDS011;18221;38.704;0.152;2023-06-14T01:12:07;4.47;;;3.73;;
10174;SDS011;18221;38.704;0.152;2023-06-14T01:14:44;6.13;;;3.50;;
10174;SDS011;18221;38.704;0.152;2023-06-14T01:17:16;4.90;;;3.93;;
10174;SDS011;18221;38.704;0.152;2023-06-14T01:19:46;4.47;;;3.30;;
10174;SDS011;18221;38.704;0.152;2023-06-14T01:22:14;5.93;;;4.10;;
10174;SDS011;18221;38.704;0.152;2023-06-14T01:24:43;6.97;;;3.70;;
10174;SDS011;18221;38.704;0.152;2023-06-14T01:27:11;4.73;;;3.50;;
10174;SDS011;18221;38.704;0.152;2023-06-14T01:29:40;5.70;;;3.47;;
10174;SDS011;18221;38.704;0.152;2023-06-14T01:32:10;4.97;;;3.40;;
10174;SDS011;18221;38.704;0.152;2023-06-14T01:34:39;5.13;;;3.70;;
10174;SDS011;18221;38.704;0.152;2023-06-14T01:37:07;4.03;;;3.60;;
10174;SDS011;18221;38.704;0.152;2023-06-14T01:39:38;6.00;;;3.90;;
10174;SDS011;18221;38.704;0.152;2023-06-14T01:42:10;5.17;;;4.00;;
10174;SDS011;18221;38.704;0.152;2023-06-14T01:44:40;3.97;;;3.50;;
10174;SDS011;18221;38.704;0.152;2023-06-14T01:47:10;5.90;;;3.80;;
10174;SDS011;18221;38.704;0.152;2023-06-14T01:49:41;3.97;;;3.30;;
10174;SDS011;18221;38.704;0.152;2023-06-14T01:52:09;4.80;;;3.83;;
10174;SDS011;18221;38.704;0.152;2023-06-14T01:54:36;4.77;;;3.67;;
10174;SDS011;18221;38.704;0.152;2023-06-14T01:57:08;3.83;;;3.40;;
10174;SDS011;18221;38.704;0.152;2023-06-14T01:59:38;4.47;;;3.50;;
10174;SDS011;18221;38.704;0.152;2023-06-14T02:02:06;5.83;;;3.70;;
10174;SDS011;18221;38.704;0.152;2023-06-14T02:04:34;4.70;;;3.57;;
10174;SDS011;18221;38.704;0.152;2023-06-14T02:07:02;4.73;;;3.73;;
10174;SDS011;18221;38.704;0.152;2023-06-14T02:09:31;3.73;;;3.37;;
10174;SDS011;18221;38.704;0.152;2023-06-14T02:11:58;3.77;;;3.23;;
10174;SDS011;18221;38.704;0.152;2023-06-14T02:14:28;4.03;;;3.53;;
10174;SDS011;18221;38.704;0.152;2023-06-14T02:16:56;3.87;;;3.43;;
10174;SDS011;18221;38.704;0.152;2023-06-14T02:19:24;5.23;;;3.10;;
10174;SDS011;18221;38.704;0.152;2023-06-14T02:21:52;5.07;;;3.60;;
10174;SDS011;18221;38.704;0.152;2023-06-14T02:24:20;5.30;;;2.93;;
10174;SDS011;18221;38.704;0.152;2023-06-14T02:26:48;4.07;;;3.33;;
10174;SDS011;18221;38.704;0.152;2023-06-14T02:29:16;4.17;;;3.30;;
10174;SDS011;18221;38.704;0.152;2023-06-14T02:31:46;3.43;;;3.00;;
10174;SDS011;18221;38.704;0.152;2023-06-14T02:34:14;6.07;;;3.80;;
10174;SDS011;18221;38.704;0.152;2023-06-14T02:36:45;5.37;;;3.70;;
10174;SDS011;18221;38.704;0.152;2023-06-14T02:39:13;5.63;;;3.50;;
10174;SDS011;18221;38.704;0.152;2023-06-14T02:41:41;5.03;;;2.93;;
10174;SDS011;18221;38.704;0.152;2023-06-14T02:44:09;3.63;;;3.20;;
10174;SDS011;18221;38.704;0.152;2023-06-14T02:46:40;3.90;;;3.50;;
10174;SDS011;18221;38.704;0.152;2023-06-14T02:49:10;3.87;;;3.40;;
10174;SDS011;18221;38.704;0.152;2023-06-14T02:51:38;4.00;;;3.60;;
10174;SDS011;18221;38.704;0.152;2023-06-14T02:54:06;5.07;;;3.60;;
10174;SDS011;18221;38.704;0.152;2023-06-14T02:56:34;4.20;;;3.50;;
10174;SDS011;18221;38.704;0.152;2023-06-14T02:59:02;4.80;;;3.80;;
10174;SDS011;18221;38.704;0.152;2023-06-14T03:01:30;5.07;;;3.80;;
10174;SDS011;18221;38.704;0.152;2023-06-14T03:04:00;6.33;;;3.80;;
10174;SDS011;18221;38.704;0.152;2023-06-14T03:06:30;4.10;;;3.70;;
10174;SDS011;18221;38.704;0.152;2023-06-14T03:08:58;7.80;;;4.07;;
10174;SDS011;18221;38.704;0.152;2023-06-14T03:11:29;4.77;;;3.83;;
10174;SDS011;18221;38.704;0.152;2023-06-14T03:13:57;4.23;;;3.83;;
10174;SDS011;18221;38.704;0.152;2023-06-14T03:16:28;4.50;;;4.10;;
10174;SDS011;18221;38.704;0.152;2023-06-14T03:18:56;4.70;;;3.50;;
10174;SDS011;18221;38.704;0.152;2023-06-14T03:21:24;5.17;;;3.70;;
10174;SDS011;18221;38.704;0.152;2023-06-14T03:23:55;4.07;;;3.00;;
10174;SDS011;18221;38.704;0.152;2023-06-14T03:26:23;3.80;;;2.93;;
10174;SDS011;18221;38.704;0.152;2023-06-14T03:28:51;3.30;;;2.77;;
10174;SDS011;18221;38.704;0.152;2023-06-14T03:31:19;4.97;;;3.00;;
10174;SDS011;18221;38.704;0.152;2023-06-14T03:33:49;3.47;;;3.00;;
10174;SDS011;18221;38.704;0.152;2023-06-14T03:36:17;3.20;;;2.90;;
10174;SDS011;18221;38.704;0.152;2023-06-14T03:38:45;3.13;;;2.73;;
10174;SDS011;18221;38.704;0.152;2023-06-14T03:41:14;3.37;;;3.07;;
10174;SDS011;18221;38.704;0.152;2023-06-14T03:43:42;4.50;;;2.80;;
10174;SDS011;18221;38.704;0.152;2023-06-14T03:46:10;3.20;;;2.67;;
10174;SDS011;18221;38.704;0.152;2023-06-14T03:48:38;3.20;;;2.77;;
10174;SDS011;18221;38.704;0.152;2023-06-14T03:51:06;4.73;;;2.70;;
10174;SDS011;18221;38.704;0.152;2023-06-14T03:53:34;6.57;;;3.10;;
10174;SDS011;18221;38.704;0.152;2023-06-14T03:56:02;3.50;;;2.70;;
10174;SDS011;18221;38.704;0.152;2023-06-14T03:58:32;3.23;;;2.70;;
10174;SDS011;18221;38.704;0.152;2023-06-14T04:01:00;3.17;;;2.50;;
10174;SDS011;18221;38.704;0.152;2023-06-14T04:03:28;6.37;;;2.67;;
10174;SDS011;18221;38.704;0.152;2023-06-14T04:05:56;4.33;;;3.00;;
10174;SDS011;18221;38.704;0.152;2023-06-14T04:08:24;3.17;;;2.87;;
10174;SDS011;18221;38.704;0.152;2023-06-14T04:10:52;3.13;;;2.53;;
10174;SDS011;18221;38.704;0.152;2023-06-14T04:13:21;2.67;;;2.47;;
10174;SDS011;18221;38.704;0.152;2023-06-14T04:15:50;4.00;;;2.53;;
10174;SDS011;18221;38.704;0.152;2023-06-14T04:18:19;3.43;;;2.50;;
10174;SDS011;18221;38.704;0.152;2023-06-14T04:20:47;3.07;;;2.70;;
10174;SDS011;18221;38.704;0.152;2023-06-14T04:23:15;3.63;;;2.50;;
10174;SDS011;18221;38.704;0.152;2023-06-14T04:25:44;4.20;;;2.33;;
10174;SDS011;18221;38.704;0.152;2023-06-14T04:28:12;3.00;;;2.50;;
10174;SDS011;18221;38.704;0.152;2023-06-14T04:30:41;3.50;;;2.30;;
10174;SDS011;18221;38.704;0.152;2023-06-14T04:33:11;3.50;;;2.30;;
10174;SDS011;18221;38.704;0.152;2023-06-14T04:35:39;3.83;;;2.50;;
10174;SDS011;18221;38.704;0.152;2023-06-14T04:38:08;2.77;;;2.30;;
10174;SDS011;18221;38.704;0.152;2023-06-14T04:40:36;3.53;;;2.63;;
10174;SDS011;18221;38.704;0.152;2023-06-14T04:43:07;4.03;;;2.60;;
10174;SDS011;18221;38.704;0.152;2023-06-14T04:45:37;3.10;;;2.57;;
10174;SDS011;18221;38.704;0.152;2023-06-14T04:48:06;3.33;;;2.50;;
10174;SDS011;18221;38.704;0.152;2023-06-14T04:50:37;2.67;;;2.30;;
10174;SDS011;18221;38.704;0.152;2023-06-14T04:53:06;2.50;;;2.30;;
10174;SDS011;18221;38.704;0.152;2023-06-14T04:55:34;2.67;;;2.40;;
10174;SDS011;18221;38.704;0.152;2023-06-14T04:58:02;3.97;;;2.70;;
10174;SDS011;18221;38.704;0.152;2023-06-14T05:00:31;2.60;;;2.40;;
10174;SDS011;18221;38.704;0.152;2023-06-14T05:02:59;3.50;;;2.50;;
10174;SDS011;18221;38.704;0.152;2023-06-14T05:05:28;2.40;;;2.20;;
10174;SDS011;18221;38.704;0.152;2023-06-14T05:07:57;3.17;;;2.60;;
10174;SDS011;18221;38.704;0.152;2023-06-14T05:10:25;2.77;;;2.30;;
10174;SDS011;18221;38.704;0.152;2023-06-14T05:12:53;2.50;;;2.30;;
10174;SDS011;18221;38.704;0.152;2023-06-14T05:15:21;2.87;;;2.50;;
10174;SDS011;18221;38.704;0.152;2023-06-14T05:17:51;7.47;;;4.70;;
10174;SDS011;18221;38.704;0.152;2023-06-14T05:20:20;6.63;;;4.67;;
10174;SDS011;18221;38.704;0.152;2023-06-14T05:22:50;6.30;;;4.80;;
10174;SDS011;18221;38.704;0.152;2023-06-14T05:25:20;5.17;;;4.23;;
10174;SDS011;18221;38.704;0.152;2023-06-14T05:27:48;5.07;;;4.43;;
10174;SDS011;18221;38.704;0.152;2023-06-14T05:30:16;6.53;;;3.90;;
10174;SDS011;18221;38.704;0.152;2023-06-14T05:32:44;6.17;;;3.40;;
10174;SDS011;18221;38.704;0.152;2023-06-14T05:35:12;4.33;;;3.30;;
10174;SDS011;18221;38.704;0.152;2023-06-14T05:37:40;3.67;;;2.83;;
10174;SDS011;18221;38.704;0.152;2023-06-14T05:40:09;3.70;;;3.00;;
10174;SDS011;18221;38.704;0.152;2023-06-14T05:42:39;4.33;;;3.10;;
10174;SDS011;18221;38.704;0.152;2023-06-14T05:45:07;2.93;;;2.70;;
10174;SDS011;18221;38.704;0.152;2023-06-14T05:47:35;3.70;;;3.10;;
10174;SDS011;18221;38.704;0.152;2023-06-14T05:50:04;4.07;;;2.83;;
10174;SDS011;18221;38.704;0.152;2023-06-14T05:52:33;4.30;;;2.93;;
10174;SDS011;18221;38.704;0.152;2023-06-14T05:55:02;2.90;;;2.60;;
10174;SDS011;18221;38.704;0.152;2023-06-14T05:57:31;4.23;;;2.70;;
10174;SDS011;18221;38.704;0.152;2023-06-14T06:00:00;3.23;;;2.50;;
10174;SDS011;18221;38.704;0.152;2023-06-14T06:02:34;3.37;;;2.53;;
10174;SDS011;18221;38.704;0.152;2023-06-14T06:05:02;3.07;;;2.70;;
10174;SDS011;18221;38.704;0.152;2023-06-14T06:07:31;2.90;;;2.43;;
10174;SDS011;18221;38.704;0.152;2023-06-14T06:09:59;2.50;;;2.30;;
10174;SDS011;18221;38.704;0.152;2023-06-14T06:12:27;3.20;;;2.67;;
10174;SDS011;18221;38.704;0.152;2023-06-14T06:14:55;2.93;;;2.63;;
10174;SDS011;18221;38.704;0.152;2023-06-14T06:17:24;3.83;;;2.33;;
10174;SDS011;18221;38.704;0.152;2023-06-14T06:19:53;3.33;;;2.60;;
10174;SDS011;18221;38.704;0.152;2023-06-14T06:22:21;2.80;;;2.50;;
10174;SDS011;18221;38.704;0.152;2023-06-14T06:24:49;5.00;;;2.43;;
10174;SDS011;18221;38.704;0.152;2023-06-14T06:27:17;3.87;;;2.60;;
10174;SDS011;18221;38.704;0.152;2023-06-14T06:29:45;2.60;;;2.40;;
10174;SDS011;18221;38.704;0.152;2023-06-14T06:32:13;2.93;;;2.40;;
10174;SDS011;18221;38.704;0.152;2023-06-14T06:34:45;2.40;;;2.20;;
10174;SDS011;18221;38.704;0.152;2023-06-14T06:37:13;2.83;;;2.20;;
10174;SDS011;18221;38.704;0.152;2023-06-14T06:39:41;2.80;;;2.50;;
10174;SDS011;18221;38.704;0.152;2023-06-14T06:42:09;3.70;;;2.37;;
10174;SDS011;18221;38.704;0.152;2023-06-14T06:44:39;3.10;;;2.30;;
10174;SDS011;18221;38.704;0.152;2023-06-14T06:47:07;2.43;;;2.20;;
10174;SDS011;18221;38.704;0.152;2023-06-14T06:49:36;2.33;;;2.13;;
10174;SDS011;18221;38.704;0.152;2023-06-14T06:52:08;3.63;;;2.43;;
10174;SDS011;18221;38.704;0.152;2023-06-14T06:54:36;2.73;;;2.30;;
10174;SDS011;18221;38.704;0.152;2023-06-14T06:57:07;3.40;;;2.50;;
10174;SDS011;18221;38.704;0.152;2023-06-14T06:59:39;3.30;;;2.40;;
10174;SDS011;18221;38.704;0.152;2023-06-14T07:02:07;2.63;;;2.20;;
10174;SDS011;18221;38.704;0.152;2023-06-14T07:04:35;3.33;;;2.33;;
10174;SDS011;18221;38.704;0.152;2023-06-14T07:07:03;3.00;;;2.10;;
10174;SDS011;18221;38.704;0.152;2023-06-14T07:09:32;3.27;;;2.67;;
10174;SDS011;18221;38.704;0.152;2023-06-14T07:12:00;3.83;;;2.50;;
10174;SDS011;18221;38.704;0.152;2023-06-14T07:14:28;3.73;;;2.40;;
10174;SDS011;18221;38.704;0.152;2023-06-14T07:16:56;2.80;;;2.40;;
10174;SDS011;18221;38.704;0.152;2023-06-14T07:19:24;4.00;;;2.47;;
10174;SDS011;18221;38.704;0.152;2023-06-14T07:21:52;2.90;;;2.17;;
10174;SDS011;18221;38.704;0.152;2023-06-14T07:24:20;2.73;;;2.50;;
10174;SDS011;18221;38.704;0.152;2023-06-14T07:26:50;3.47;;;2.80;;
10174;SDS011;18221;38.704;0.152;2023-06-14T07:29:18;4.83;;;2.70;;
10174;SDS011;18221;38.704;0.152;2023-06-14T07:31:46;3.37;;;2.70;;
10174;SDS011;18221;38.704;0.152;2023-06-14T07:34:14;3.33;;;2.80;;
10174;SDS011;18221;38.704;0.152;2023-06-14T07:36:42;4.27;;;2.87;;
10174;SDS011;18221;38.704;0.152;2023-06-14T07:39:10;3.70;;;3.20;;
10174;SDS011;18221;38.704;0.152;2023-06-14T07:41:38;4.17;;;3.00;;
10174;SDS011;18221;38.704;0.152;2023-06-14T07:44:08;3.70;;;2.70;;
10174;SDS011;18221;38.704;0.152;2023-06-14T07:46:37;2.90;;;2.50;;
10174;SDS011;18221;38.704;0.152;2023-06-14T07:49:07;2.77;;;2.00;;
10174;SDS011;18221;38.704;0.152;2023-06-14T07:51:35;2.73;;;2.47;;
10174;SDS011;18221;38.704;0.152;2023-06-14T07:54:03;5.13;;;2.30;;
10174;SDS011;18221;38.704;0.152;2023-06-14T07:56:32;3.03;;;2.40;;
10174;SDS011;18221;38.704;0.152;2023-06-14T07:59:00;2.60;;;2.40;;
10174;SDS011;18221;38.704;0.152;2023-06-14T08:01:30;2.60;;;2.40;;
10174;SDS011;18221;38.704;0.152;2023-06-14T08:03:58;4.70;;;2.20;;
10174;SDS011;18221;38.704;0.152;2023-06-14T08:06:26;3.10;;;2.30;;
10174;SDS011;18221;38.704;0.152;2023-06-14T08:08:54;3.93;;;2.40;;
10174;SDS011;18221;38.704;0.152;2023-06-14T08:11:22;2.40;;;2.13;;
10174;SDS011;18221;38.704;0.152;2023-06-14T08:13:50;2.90;;;2.10;;
10174;SDS011;18221;38.704;0.152;2023-06-14T08:16:18;2.55;;;2.33;;
10174;SDS011;18221;38.704;0.152;2023-06-14T08:18:48;3.35;;;2.00;;
10174;SDS011;18221;38.704;0.152;2023-06-14T08:21:16;2.40;;;1.90;;
10174;SDS011;18221;38.704;0.152;2023-06-14T08:23:44;3.55;;;2.10;;
10174;SDS011;18221;38.704;0.152;2023-06-14T08:26:12;2.22;;;2.03;;
10174;SDS011;18221;38.704;0.152;2023-06-14T08:28:41;2.20;;;1.77;;
10174;SDS011;18221;38.704;0.152;2023-06-14T08:31:09;3.05;;;2.00;;
10174;SDS011;18221;38.704;0.152;2023-06-14T08:33:37;2.17;;;1.98;;
10174;SDS011;18221;38.704;0.152;2023-06-14T08:36:09;2.00;;;1.80;;
10174;SDS011;18221;38.704;0.152;2023-06-14T08:38:38;2.42;;;1.75;;
10174;SDS011;18221;38.704;0.152;2023-06-14T08:41:06;2.28;;;1.80;;
10174;SDS011;18221;38.704;0.152;2023-06-14T08:43:38;2.53;;;1.88;;
10174;SDS011;18221;38.704;0.152;2023-06-14T08:46:06;2.17;;;1.90;;
10174;SDS011;18221;38.704;0.152;2023-06-14T08:48:37;2.30;;;1.63;;
10174;SDS011;18221;38.704;0.152;2023-06-14T08:51:07;2.00;;;1.77;;
10174;SDS011;18221;38.704;0.152;2023-06-14T08:53:41;3.10;;;2.08;;
10174;SDS011;18221;38.704;0.152;2023-06-14T08:56:10;1.75;;;1.65;;
10174;SDS011;18221;38.704;0.152;2023-06-14T08:58:40;2.30;;;1.85;;
10174;SDS011;18221;38.704;0.152;2023-06-14T09:01:11;2.13;;;1.60;;
10174;SDS011;18221;38.704;0.152;2023-06-14T09:03:42;2.00;;;1.80;;
10174;SDS011;18221;38.704;0.152;2023-06-14T09:06:15;3.75;;;2.05;;
10174;SDS011;18221;38.704;0.152;2023-06-14T09:08:44;1.90;;;1.80;;
10174;SDS011;18221;38.704;0.152;2023-06-14T09:11:14;2.30;;;1.73;;
10174;SDS011;18221;38.704;0.152;2023-06-14T09:13:44;3.10;;;2.05;;
10174;SDS011;18221;38.704;0.152;2023-06-14T09:16:14;1.90;;;1.80;;
10174;SDS011;18221;38.704;0.152;2023-06-14T09:18:42;2.75;;;2.10;;
10174;SDS011;18221;38.704;0.152;2023-06-14T09:21:13;2.10;;;1.90;;
10174;SDS011;18221;38.704;0.152;2023-06-14T09:23:44;2.00;;;1.80;;
10174;SDS011;18221;38.704;0.152;2023-06-14T09:26:15;2.25;;;2.05;;
10174;SDS011;18221;38.704;0.152;2023-06-14T09:28:45;2.33;;;1.90;;
10174;SDS011;18221;38.704;0.152;2023-06-14T09:31:15;2.28;;;2.08;;
10174;SDS011;18221;38.704;0.152;2023-06-14T09:33:47;3.20;;;1.98;;
10174;SDS011;18221;38.704;0.152;2023-06-14T09:36:21;2.40;;;1.98;;
10174;SDS011;18221;38.704;0.152;2023-06-14T09:38:53;2.72;;;2.20;;
10174;SDS011;18221;38.704;0.152;2023-06-14T09:41:30;2.20;;;2.00;;
10174;SDS011;18221;38.704;0.152;2023-06-14T09:43:59;2.40;;;1.90;;
10174;SDS011;18221;38.704;0.152;2023-06-14T09:46:29;2.95;;;2.17;;
10174;SDS011;18221;38.704;0.152;2023-06-14T09:48:57;2.85;;;2.30;;
10174;SDS011;18221;38.704;0.152;2023-06-14T09:51:28;3.88;;;1.95;;
10174;SDS011;18221;38.704;0.152;2023-06-14T09:53:58;2.70;;;2.30;;
10174;SDS011;18221;38.704;0.152;2023-06-14T09:56:30;2.40;;;2.10;;
10174;SDS011;18221;38.704;0.152;2023-06-14T09:59:04;2.53;;;1.88;;
10174;SDS011;18221;38.704;0.152;2023-06-14T10:01:36;2.97;;;2.10;;
10174;SDS011;18221;38.704;0.152;2023-06-14T10:04:10;3.25;;;1.83;;
10174;SDS011;18221;38.704;0.152;2023-06-14T10:06:45;2.30;;;2.10;;
10174;SDS011;18221;38.704;0.152;2023-06-14T10:09:14;3.63;;;1.95;;
10174;SDS011;18221;38.704;0.152;2023-06-14T10:11:44;4.25;;;2.70;;
10174;SDS011;18221;38.704;0.152;2023-06-14T10:14:13;2.50;;;2.20;;
10174;SDS011;18221;38.704;0.152;2023-06-14T10:16:45;2.33;;;2.13;;
10174;SDS011;18221;38.704;0.152;2023-06-14T10:19:24;2.65;;;2.00;;
10174;SDS011;18221;38.704;0.152;2023-06-14T10:22:02;2.97;;;1.90;;
10174;SDS011;18221;38.704;0.152;2023-06-14T10:24:38;2.97;;;1.88;;
10174;SDS011;18221;38.704;0.152;2023-06-14T10:27:09;2.83;;;2.50;;
10174;SDS011;18221;38.704;0.152;2023-06-14T10:32:34;2.20;;;2.00;;
10174;SDS011;18221;38.704;0.152;2023-06-14T10:35:22;2.10;;;1.90;;
10174;SDS011;18221;38.704;0.152;2023-06-14T10:37:52;3.75;;;2.83;;
10174;SDS011;18221;38.704;0.152;2023-06-14T10:40:32;2.65;;;2.45;;
10174;SDS011;18221;38.704;0.152;2023-06-14T10:48:43;2.20;;;1.70;;
10174;SDS011;18221;38.704;0.152;2023-06-14T10:51:15;4.45;;;1.88;;
10174;SDS011;18221;38.704;0.152;2023-06-14T10:53:49;3.67;;;2.25;;
10174;SDS011;18221;38.704;0.152;2023-06-14T10:56:24;2.90;;;1.98;;
10174;SDS011;18221;38.704;0.152;2023-06-14T10:58:56;1.70;;;1.60;;
10174;SDS011;18221;38.704;0.152;2023-06-14T11:01:30;2.03;;;1.83;;
10174;SDS011;18221;38.704;0.152;2023-06-14T11:04:08;2.65;;;2.00;;
10174;SDS011;18221;38.704;0.152;2023-06-14T11:06:44;2.25;;;2.05;;
10174;SDS011;18221;38.704;0.152;2023-06-14T11:12:20;2.10;;;1.90;;
10174;SDS011;18221;38.704;0.152;2023-06-14T11:14:51;2.20;;;1.80;;
10174;SDS011;18221;38.704;0.152;2023-06-14T11:17:19;2.00;;;1.80;;
10174;SDS011;18221;38.704;0.152;2023-06-14T11:19:49;2.38;;;2.17;;
10174;SDS011;18221;38.704;0.152;2023-06-14T11:22:16;1.90;;;1.75;;
10174;SDS011;18221;38.704;0.152;2023-06-14T11:24:46;3.42;;;2.22;;
10174;SDS011;18221;38.704;0.152;2023-06-14T11:27:14;2.08;;;1.92;;
10174;SDS011;18221;38.704;0.152;2023-06-14T11:29:47;2.65;;;1.77;;
10174;SDS011;18221;38.704;0.152;2023-06-14T11:32:16;2.00;;;1.85;;
10174;SDS011;18221;38.704;0.152;2023-06-14T11:34:45;1.83;;;1.65;;
10174;SDS011;18221;38.704;0.152;2023-06-14T11:37:16;3.13;;;1.90;;
10174;SDS011;18221;38.704;0.152;2023-06-14T11:39:46;2.55;;;1.90;;
10174;SDS011;18221;38.704;0.152;2023-06-14T11:42:14;2.83;;;1.70;;
10174;SDS011;18221;38.704;0.152;2023-06-14T11:44:45;2.40;;;1.65;;
10174;SDS011;18221;38.704;0.152;2023-06-14T11:47:13;2.05;;;1.67;;
10174;SDS011;18221;38.704;0.152;2023-06-14T11:49:41;4.05;;;1.80;;
10174;SDS011;18221;38.704;0.152;2023-06-14T11:52:09;1.70;;;1.50;;
10174;SDS011;18221;38.704;0.152;2023-06-14T11:54:38;3.65;;;1.65;;
10174;SDS011;18221;38.704;0.152;2023-06-14T11:57:08;2.30;;;1.60;;
10174;SDS011;18221;38.704;0.152;2023-06-14T11:59:38;1.60;;;1.50;;
10174;SDS011;18221;38.704;0.152;2023-06-14T12:02:06;2.20;;;1.52;;
10174;SDS011;18221;38.704;0.152;2023-06-14T12:04:35;2.00;;;1.50;;
10174;SDS011;18221;38.704;0.152;2023-06-14T12:07:09;1.90;;;1.58;;
10174;SDS011;18221;38.704;0.152;2023-06-14T12:09:40;3.80;;;1.77;;
10174;SDS011;18221;38.704;0.152;2023-06-14T12:12:11;2.10;;;1.70;;
10174;SDS011;18221;38.704;0.152;2023-06-14T12:14:41;1.60;;;1.50;;
10174;SDS011;18221;38.704;0.152;2023-06-14T12:17:09;2.47;;;1.50;;
10174;SDS011;18221;38.704;0.152;2023-06-14T12:19:41;2.33;;;1.50;;
10174;SDS011;18221;38.704;0.152;2023-06-14T12:22:09;1.77;;;1.45;;
10174;SDS011;18221;38.704;0.152;2023-06-14T12:24:38;1.50;;;1.40;;
10174;SDS011;18221;38.704;0.152;2023-06-14T12:27:06;1.30;;;1.20;;
10174;SDS011;18221;38.704;0.152;2023-06-14T12:29:38;1.58;;;1.48;;
10174;SDS011;18221;38.704;0.152;2023-06-14T12:32:07;11.52;;;2.28;;
10174;SDS011;18221;38.704;0.152;2023-06-14T12:34:35;4.82;;;1.70;;
10174;SDS011;18221;38.704;0.152;2023-06-14T12:37:03;2.13;;;1.50;;
10174;SDS011;18221;38.704;0.152;2023-06-14T12:39:32;2.75;;;1.50;;
10174;SDS011;18221;38.704;0.152;2023-06-14T12:41:59;1.90;;;1.70;;
10174;SDS011;18221;38.704;0.152;2023-06-14T12:44:29;1.75;;;1.60;;
10174;SDS011;18221;38.704;0.152;2023-06-14T12:47:00;2.95;;;1.52;;
10174;SDS011;18221;38.704;0.152;2023-06-14T12:49:28;1.42;;;1.30;;
10174;SDS011;18221;38.704;0.152;2023-06-14T12:51:56;1.50;;;1.40;;
10174;SDS011;18221;38.704;0.152;2023-06-14T12:54:24;1.88;;;1.40;;
10174;SDS011;18221;38.704;0.152;2023-06-14T12:56:52;1.60;;;1.50;;
10174;SDS011;18221;38.704;0.152;2023-06-14T12:59:20;2.63;;;1.45;;
10174;SDS011;18221;38.704;0.152;2023-06-14T13:01:48;1.83;;;1.38;;
10174;SDS011;18221;38.704;0.152;2023-06-14T13:04:18;1.83;;;1.70;;
10174;SDS011;18221;38.704;0.152;2023-06-14T13:06:46;1.80;;;1.50;;
10174;SDS011;18221;38.704;0.152;2023-06-14T13:09:14;2.33;;;1.85;;
10174;SDS011;18221;38.704;0.152;2023-06-14T13:11:42;2.22;;;1.88;;
10174;SDS011;18221;38.704;0.152;2023-06-14T13:14:12;2.10;;;1.90;;
10174;SDS011;18221;38.704;0.152;2023-06-14T13:16:40;2.80;;;2.30;;
10174;SDS011;18221;38.704;0.152;2023-06-14T13:19:08;3.03;;;2.20;;
10174;SDS011;18221;38.704;0.152;2023-06-14T13:21:37;2.30;;;2.10;;
10174;SDS011;18221;38.704;0.152;2023-06-14T13:24:05;2.42;;;2.13;;
10174;SDS011;18221;38.704;0.152;2023-06-14T13:26:33;2.70;;;2.47;;
10174;SDS011;18221;38.704;0.152;2023-06-14T13:29:01;2.58;;;2.20;;
10174;SDS011;18221;38.704;0.152;2023-06-14T13:31:30;3.35;;;2.38;;
10174;SDS011;18221;38.704;0.152;2023-06-14T13:33:58;3.15;;;2.25;;
10174;SDS011;18221;38.704;0.152;2023-06-14T13:36:26;2.40;;;2.10;;
10174;SDS011;18221;38.704;0.152;2023-06-14T13:38:57;2.70;;;2.50;;
10174;SDS011;18221;38.704;0.152;2023-06-14T13:41:25;3.25;;;2.35;;
10174;SDS011;18221;38.704;0.152;2023-06-14T13:43:57;3.17;;;2.25;;
10174;SDS011;18221;38.704;0.152;2023-06-14T13:46:25;2.72;;;2.22;;
10174;SDS011;18221;38.704;0.152;2023-06-14T13:48:53;2.60;;;2.40;;
10174;SDS011;18221;38.704;0.152;2023-06-14T13:51:22;3.25;;;2.30;;
10174;SDS011;18221;38.704;0.152;2023-06-14T13:53:52;3.83;;;2.60;;
10174;SDS011;18221;38.704;0.152;2023-06-14T13:56:22;3.22;;;2.20;;
10174;SDS011;18221;38.704;0.152;2023-06-14T13:58:50;3.47;;;2.45;;
10174;SDS011;18221;38.704;0.152;2023-06-14T14:01:18;2.88;;;2.35;;
10174;SDS011;18221;38.704;0.152;2023-06-14T14:03:46;4.40;;;3.03;;
10174;SDS011;18221;38.704;0.152;2023-06-14T14:06:15;2.88;;;2.30;;
10174;SDS011;18221;38.704;0.152;2023-06-14T14:08:43;3.50;;;2.67;;
10174;SDS011;18221;38.704;0.152;2023-06-14T14:11:11;2.65;;;2.38;;
10174;SDS011;18221;38.704;0.152;2023-06-14T14:13:42;3.15;;;2.13;;
10174;SDS011;18221;38.704;0.152;2023-06-14T14:16:12;3.15;;;2.15;;
10174;SDS011;18221;38.704;0.152;2023-06-14T14:18:40;3.35;;;2.25;;
10174;SDS011;18221;38.704;0.152;2023-06-14T14:21:08;2.58;;;2.22;;
10174;SDS011;18221;38.704;0.152;2023-06-14T14:23:36;3.30;;;2.10;;
10174;SDS011;18221;38.704;0.152;2023-06-14T14:26:04;2.33;;;2.10;;
10174;SDS011;18221;38.704;0.152;2023-06-14T14:28:31;2.33;;;2.10;;
10174;SDS011;18221;38.704;0.152;2023-06-14T14:31:01;3.63;;;2.58;;
10174;SDS011;18221;38.704;0.152;2023-06-14T14:33:29;2.63;;;2.42;;
10174;SDS011;18221;38.704;0.152;2023-06-14T14:35:57;2.88;;;2.22;;
10174;SDS011;18221;38.704;0.152;2023-06-14T14:38:29;2.80;;;2.60;;
10174;SDS011;18221;38.704;0.152;2023-06-14T14:40:57;3.20;;;2.50;;
10174;SDS011;18221;38.704;0.152;2023-06-14T14:43:25;4.65;;;2.58;;
10174;SDS011;18221;38.704;0.152;2023-06-14T14:45:56;2.38;;;2.17;;
10174;SDS011;18221;38.704;0.152;2023-06-14T14:48:25;2.90;;;2.30;;
10174;SDS011;18221;38.704;0.152;2023-06-14T14:50:53;2.60;;;2.40;;
10174;SDS011;18221;38.704;0.152;2023-06-14T14:53:21;3.00;;;2.20;;
10174;SDS011;18221;38.704;0.152;2023-06-14T14:55:49;2.30;;;2.10;;
10174;SDS011;18221;38.704;0.152;2023-06-14T14:58:17;3.05;;;2.00;;
10174;SDS011;18221;38.704;0.152;2023-06-14T15:00:48;2.25;;;2.05;;
10174;SDS011;18221;38.704;0.152;2023-06-14T15:03:16;4.32;;;2.28;;
10174;SDS011;18221;38.704;0.152;2023-06-14T15:05:45;2.60;;;1.95;;
10174;SDS011;18221;38.704;0.152;2023-06-14T15:08:13;2.60;;;2.40;;
10174;SDS011;18221;38.704;0.152;2023-06-14T15:10:41;2.60;;;2.28;;
10174;SDS011;18221;38.704;0.152;2023-06-14T15:13:10;3.03;;;2.47;;